Home   Weather   Bahrain   Manama   Past weeks
Flag for Bahrain

Past Weather in Manama, Bahrain — Yesterday and Last 2 Weeks

Currently: 97 °F. Clear. (Weather station: Bahrain International Airport, Bahrain). See more current weather

Past Weather in Manama — Graph

°F

Manama Temperature Yesterday

Maximum temperature yesterday: 102 °F (at 11:00 am)
Minimum temperature yesterday: 93 °F (at 12:30 am)
Average temperature yesterday: 97 °F

High & Low Weather Summary for the Past Weeks

 TemperatureHumidityPressure
High108 °F (Aug 4, 11:30 am)80% (Jul 29, 10:30 pm)29.62 "Hg (Jul 29, 10:30 pm)
Low90 °F (Jul 28, 12:00 pm)28% (Aug 4, 11:30 am)29.30 "Hg (Aug 11, 12:30 am)
Average96 °F63%29.47 "Hg
* Reported Jul 27 7:00 pm — Aug 11 7:00 pm, Manama. Weather by CustomWeather, © 2022

Note: Actual official high and low records may vary slightly from our data, if they occured in-between our weather recording intervals... More about our weather records

Manama Weather History for the Previous 24 Hours

Scroll right to see more
 ConditionsComfort  
Time TempWeatherWind HumidityBarometerVisibility
7:00 pm
Thu, Aug 11
97 °FClear.6 mph56%29.33 "Hg4 mi
6:30 pm99 °FClear.5 mph53%29.33 "Hg4 mi
6:00 pm99 °FClear.7 mph50%29.36 "Hg4 mi
4:00 pm100 °FDuststorm.12 mph53%29.36 "Hg3 mi
3:30 pm100 °FDuststorm.13 mph53%29.36 "Hg2 mi
3:00 pm100 °FDuststorm.13 mph50%29.36 "Hg2 mi
2:00 pm102 °FDuststorm.13 mph54%29.36 "Hg1 mi
1:30 pm102 °FDense fog.14 mph51%29.36 "Hg1 mi
1:00 pm100 °FDuststorm.16 mph57%29.39 "Hg1 mi
12:00 pm100 °FDuststorm.15 mph57%29.39 "Hg2 mi
11:30 am102 °FDuststorm.15 mph54%29.39 "Hg2 mi
11:00 am102 °FDuststorm.15 mph54%29.39 "Hg3 mi
10:00 am100 °FClear.14 mph57%29.42 "Hg5 mi
9:00 am99 °FSunny.10 mph60%29.39 "Hg10 mi
8:00 am95 °FSunny.12 mph75%29.39 "Hg10 mi
7:30 am95 °FSunny.13 mph75%29.39 "Hg10 mi
7:00 am95 °FSunny.10 mph75%29.39 "Hg10 mi
6:00 am95 °FPassing clouds.6 mph75%29.39 "HgN/A
5:30 am93 °FSunny.10 mph80%29.36 "Hg10 mi
5:00 am93 °FPassing clouds.9 mph75%29.39 "HgN/A
4:30 am93 °FClear.8 mph71%29.36 "Hg10 mi
4:00 am93 °FClear.9 mph75%29.33 "Hg10 mi
2:30 am93 °FPassing clouds.7 mph80%29.33 "HgN/A
2:00 am95 °FPassing clouds.10 mph75%29.33 "HgN/A
1:30 am93 °FPassing clouds.8 mph80%29.33 "HgN/A
1:00 am95 °FPassing clouds.7 mph71%29.33 "HgN/A
12:30 am95 °FClear.10 mph71%29.30 "Hg10 mi
12:00 am95 °FLight rain. Clear.6 mph71%29.36 "HgN/A
11:30 pm
Wed, Aug 10
95 °FPassing clouds.5 mph71%29.33 "HgN/A
11:00 pm95 °FPassing clouds.3 mph71%29.33 "HgN/A
10:30 pm93 °FClear.1 mph75%29.36 "Hg10 mi
10:00 pm93 °FClear.2 mph80%29.36 "Hg10 mi
9:30 pm93 °FPassing clouds.3 mph80%29.36 "HgN/A
9:00 pm93 °FPassing clouds.3 mph75%29.36 "HgN/A
8:00 pm95 °FClear.9 mph71%29.36 "Hg10 mi
Weather by CustomWeather, © 2022

See weather overview